createdAt,value
2022-09-15T00:02:46.670Z,11.60
2022-09-15T00:05:48.611Z,11.58
2022-09-15T00:08:50.231Z,11.54
2022-09-15T00:11:51.824Z,11.51
2022-09-15T00:14:53.835Z,11.48
2022-09-15T00:17:55.519Z,11.43
2022-09-15T00:20:57.362Z,11.39
2022-09-15T00:24:00.356Z,11.36
2022-09-15T00:27:02.179Z,11.33
2022-09-15T00:30:05.146Z,11.32
2022-09-15T00:33:07.339Z,11.31
2022-09-15T00:36:11.282Z,11.31
2022-09-15T00:39:13.047Z,11.35
2022-09-15T00:42:20.163Z,11.45
2022-09-15T00:45:21.780Z,11.51
2022-09-15T00:48:23.472Z,11.58
2022-09-15T00:51:32.629Z,11.62
2022-09-15T00:54:49.315Z,11.66
2022-09-15T00:57:59.903Z,11.64
2022-09-15T01:01:04.709Z,11.66
2022-09-15T01:04:06.357Z,11.71
2022-09-15T01:07:11.068Z,11.75
2022-09-15T01:10:17.690Z,11.81
2022-09-15T01:13:19.316Z,11.82
2022-09-15T01:16:39.387Z,11.86
2022-09-15T01:19:43.923Z,11.85
2022-09-15T01:23:23.246Z,11.89
2022-09-15T01:26:40.071Z,11.91
2022-09-15T01:29:56.860Z,11.90
2022-09-15T01:33:09.475Z,11.91
2022-09-15T01:36:25.329Z,11.90
2022-09-15T01:39:36.589Z,11.90
2022-09-15T01:42:40.343Z,11.92
2022-09-15T01:45:45.401Z,11.95
2022-09-15T01:48:50.044Z,11.99
2022-09-15T01:51:54.060Z,11.99
2022-09-15T01:54:59.036Z,12.05
2022-09-15T01:58:00.608Z,12.09
2022-09-15T02:01:23.580Z,12.12
2022-09-15T02:04:38.182Z,12.13
2022-09-15T02:07:59.178Z,12.17
2022-09-15T02:11:11.680Z,12.21
2022-09-15T02:14:20.833Z,12.26
2022-09-15T02:17:26.770Z,12.25
2022-09-15T02:20:44.404Z,12.22
2022-09-15T02:23:53.481Z,12.13
2022-09-15T02:26:55.430Z,12.03
2022-09-15T02:30:05.934Z,11.93
2022-09-15T02:33:14.202Z,11.89
2022-09-15T02:36:19.884Z,11.84
2022-09-15T02:39:27.236Z,11.80
2022-09-15T02:42:31.234Z,11.74
2022-09-15T02:45:32.989Z,11.70
2022-09-15T02:48:35.439Z,11.64
2022-09-15T02:51:37.131Z,11.59
2022-09-15T02:54:38.729Z,11.53
2022-09-15T02:57:40.309Z,11.45
2022-09-15T03:00:42.565Z,11.42
2022-09-15T03:03:45.578Z,11.38
2022-09-15T03:06:47.187Z,11.44
2022-09-15T03:09:48.743Z,11.50
2022-09-15T03:12:52.994Z,11.54
2022-09-15T03:15:54.561Z,11.60
2022-09-15T03:18:59.298Z,11.63
2022-09-15T03:22:00.881Z,11.68
2022-09-15T03:25:04.870Z,11.71
2022-09-15T03:28:06.392Z,11.70
2022-09-15T03:31:09.299Z,11.73
2022-09-15T03:34:10.960Z,11.74
2022-09-15T03:37:12.699Z,11.74
2022-09-15T03:40:14.414Z,11.78
2022-09-15T03:43:18.743Z,11.78
2022-09-15T03:46:20.662Z,11.83
2022-09-15T03:49:22.440Z,11.84
2022-09-15T03:52:24.048Z,11.86
2022-09-15T03:55:25.737Z,11.85
2022-09-15T03:58:30.646Z,11.85
2022-09-15T04:01:33.114Z,11.84
2022-09-15T04:04:34.851Z,11.80
2022-09-15T04:07:36.752Z,11.77
2022-09-15T04:10:39.691Z,11.78
2022-09-15T04:13:42.410Z,11.81
2022-09-15T04:16:44.142Z,11.86
2022-09-15T04:19:45.763Z,11.91
2022-09-15T04:22:47.495Z,11.98
2022-09-15T04:26:19.055Z,12.08
2022-09-15T04:29:20.649Z,12.12
2022-09-15T04:32:22.288Z,12.18
2022-09-15T04:35:23.909Z,12.24
2022-09-15T04:38:25.518Z,12.24
2022-09-15T04:41:28.290Z,12.26
2022-09-15T04:44:29.973Z,12.28
2022-09-15T04:47:31.638Z,12.24
2022-09-15T04:50:33.873Z,12.24
2022-09-15T04:53:40.686Z,12.21
2022-09-15T04:56:42.664Z,12.21
2022-09-15T04:59:44.281Z,12.22
2022-09-15T05:02:46.544Z,12.22
2022-09-15T05:05:48.174Z,12.22
2022-09-15T05:08:51.591Z,12.24
2022-09-15T05:11:53.302Z,12.24
2022-09-15T05:14:54.957Z,12.24
2022-09-15T05:17:56.543Z,12.32
2022-09-15T05:21:02.221Z,12.37
2022-09-15T05:24:24.306Z,12.43
2022-09-15T05:27:25.981Z,12.45
2022-09-15T05:30:44.515Z,12.49
2022-09-15T05:33:48.233Z,12.52
2022-09-15T05:36:49.938Z,12.53
2022-09-15T05:39:51.695Z,12.61
2022-09-15T05:42:53.455Z,12.65
2022-09-15T05:45:55.504Z,12.66
2022-09-15T05:48:58.789Z,12.70
2022-09-15T05:52:00.636Z,12.75
2022-09-15T05:55:02.266Z,12.80
2022-09-15T05:58:04.374Z,12.81
2022-09-15T06:01:13.785Z,12.85
2022-09-15T06:04:15.344Z,12.86
2022-09-15T06:07:17.038Z,12.92
2022-09-15T06:10:18.652Z,12.94
2022-09-15T06:13:20.249Z,13.01
2022-09-15T06:16:24.067Z,13.04
2022-09-15T06:19:25.825Z,13.08
2022-09-15T06:22:27.978Z,13.08
2022-09-15T06:25:29.607Z,13.13
2022-09-15T06:28:31.263Z,13.19
2022-09-15T06:31:34.143Z,13.29
2022-09-15T06:34:35.803Z,13.31
2022-09-15T06:37:37.378Z,13.34
2022-09-15T06:40:39.096Z,13.39
2022-09-15T06:43:41.303Z,13.41
2022-09-15T06:46:42.913Z,13.42
2022-09-15T06:49:44.498Z,13.45
2022-09-15T06:52:46.103Z,13.46
2022-09-15T06:55:47.841Z,13.51
2022-09-15T06:58:50.067Z,13.52
2022-09-15T07:01:55.861Z,13.55
2022-09-15T07:04:57.547Z,13.55
2022-09-15T07:07:59.136Z,13.59
2022-09-15T07:11:01.690Z,13.66
2022-09-15T07:14:04.297Z,13.68
2022-09-15T07:17:05.862Z,13.63
2022-09-15T07:20:07.766Z,13.60
2022-09-15T07:23:09.467Z,13.58
2022-09-15T07:26:18.528Z,13.64
2022-09-15T07:29:20.161Z,13.71
2022-09-15T07:32:21.942Z,13.77
2022-09-15T07:35:23.630Z,13.81
2022-09-15T07:38:25.282Z,13.91
2022-09-15T07:41:29.317Z,14.01
2022-09-15T07:44:31.019Z,14.08
2022-09-15T07:47:32.786Z,14.17
2022-09-15T07:50:34.472Z,14.13
2022-09-15T07:53:36.063Z,14.16
2022-09-15T07:56:42.333Z,14.25
2022-09-15T07:59:44.019Z,14.40
2022-09-15T08:02:45.599Z,14.48
2022-09-15T08:05:47.246Z,14.60
2022-09-15T08:08:51.729Z,14.67
2022-09-15T08:11:54.711Z,14.68
2022-09-15T08:14:56.388Z,14.67
2022-09-15T08:17:58.069Z,14.70
2022-09-15T08:20:59.854Z,14.72
2022-09-15T08:24:01.589Z,14.71
2022-09-15T08:27:04.869Z,14.66
2022-09-15T08:30:07.486Z,14.58
2022-09-15T08:33:09.100Z,14.48
2022-09-15T08:36:11.476Z,14.55
2022-09-15T08:39:13.037Z,14.61
2022-09-15T08:42:16.981Z,14.76
2022-09-15T08:45:28.652Z,15.03
2022-09-15T08:48:39.469Z,15.17
2022-09-15T08:51:48.688Z,15.36
2022-09-15T08:54:54.957Z,15.50
2022-09-15T08:57:56.791Z,15.49
2022-09-15T09:01:14.913Z,15.54
2022-09-15T09:04:22.584Z,15.59
2022-09-15T09:08:01.299Z,15.49
2022-09-15T09:11:24.543Z,15.49
2022-09-15T09:14:26.138Z,15.49
2022-09-15T09:17:58.807Z,15.57
2022-09-15T09:21:09.574Z,15.63
2022-09-15T09:24:19.999Z,15.73
2022-09-15T09:27:28.491Z,15.68
2022-09-15T09:30:33.301Z,15.61
2022-09-15T09:33:47.562Z,15.71
2022-09-15T09:36:57.390Z,15.72
2022-09-15T09:39:59.025Z,15.83
2022-09-15T09:43:01.074Z,15.94
2022-09-15T09:46:02.799Z,16.01
2022-09-15T09:49:23.965Z,16.19
2022-09-15T09:52:36.320Z,16.26
2022-09-15T09:55:41.231Z,16.29
2022-09-15T09:58:43.356Z,16.25
2022-09-15T10:02:24.806Z,16.14
2022-09-15T10:05:26.694Z,16.04
2022-09-15T10:08:28.650Z,16.07
2022-09-15T10:11:55.002Z,16.13
2022-09-15T10:15:05.721Z,16.26
2022-09-15T10:18:29.310Z,16.30
2022-09-15T10:21:30.980Z,16.24
2022-09-15T10:24:38.813Z,16.25
2022-09-15T10:27:40.430Z,16.39
2022-09-15T10:31:21.450Z,16.61
2022-09-15T10:34:31.550Z,16.65
2022-09-15T10:37:52.189Z,16.47
2022-09-15T10:41:07.348Z,16.32
2022-09-15T10:44:30.252Z,16.32
2022-09-15T10:47:54.406Z,16.37
2022-09-15T10:51:05.687Z,16.43
2022-09-15T10:54:28.061Z,16.45
2022-09-15T10:58:07.283Z,16.38
2022-09-15T11:01:52.966Z,16.31
2022-09-15T11:05:21.993Z,16.18
2022-09-15T11:08:29.570Z,15.99
2022-09-15T11:11:40.745Z,15.89
2022-09-15T11:15:10.251Z,15.91
2022-09-15T11:18:25.289Z,15.85
2022-09-15T11:21:36.694Z,15.78
2022-09-15T11:24:48.452Z,15.74
2022-09-15T11:28:26.605Z,15.78
2022-09-15T11:31:34.385Z,15.88
2022-09-15T11:34:42.726Z,16.08
2022-09-15T11:37:50.707Z,16.28
2022-09-15T11:41:07.545Z,16.39
2022-09-15T11:44:16.670Z,16.59
2022-09-15T11:47:30.761Z,16.85
2022-09-15T11:50:39.488Z,16.95
2022-09-15T11:53:50.995Z,16.91
2022-09-15T11:56:55.295Z,16.70
2022-09-15T12:00:12.280Z,16.51
2022-09-15T12:03:19.658Z,16.43
2022-09-15T12:06:44.816Z,16.44
2022-09-15T12:09:48.241Z,16.42
2022-09-15T12:12:53.946Z,16.38
2022-09-15T12:15:57.492Z,16.29
2022-09-15T12:19:24.820Z,16.14
2022-09-15T12:22:50.140Z,15.97
2022-09-15T12:26:14.711Z,15.82
2022-09-15T12:29:42.018Z,15.76
2022-09-15T12:32:44.351Z,15.78
2022-09-15T12:35:46.002Z,15.87
2022-09-15T12:38:49.529Z,16.04
2022-09-15T12:42:06.787Z,16.20
2022-09-15T12:45:24.376Z,16.40
2022-09-15T12:48:33.780Z,16.60
2022-09-15T12:51:36.533Z,16.78
2022-09-15T12:54:42.674Z,16.89
2022-09-15T12:57:51.676Z,16.94
2022-09-15T13:01:19.381Z,16.95
2022-09-15T13:04:51.683Z,16.97
2022-09-15T13:07:56.240Z,16.95
2022-09-15T13:11:02.622Z,16.92
2022-09-15T13:14:04.296Z,16.82
2022-09-15T13:17:13.802Z,16.68
2022-09-15T13:20:23.373Z,16.50
2022-09-15T13:23:27.195Z,16.27
2022-09-15T13:26:31.914Z,16.00
2022-09-15T13:29:40.135Z,15.84
2022-09-15T13:32:57.153Z,15.80
2022-09-15T13:36:02.077Z,15.80
2022-09-15T13:39:25.059Z,15.82
2022-09-15T13:42:53.488Z,15.95
2022-09-15T13:46:04.905Z,16.07
2022-09-15T13:49:40.123Z,16.18
2022-09-15T13:53:15.069Z,16.28
2022-09-15T13:56:27.311Z,16.37
2022-09-15T13:59:32.588Z,16.40
2022-09-15T14:02:34.479Z,16.35
2022-09-15T14:05:36.889Z,16.36
2022-09-15T14:08:40.444Z,16.39
2022-09-15T14:11:43.503Z,16.39
2022-09-15T14:14:46.699Z,16.40
2022-09-15T14:17:48.401Z,16.40
2022-09-15T14:21:04.287Z,16.42
2022-09-15T14:24:17.208Z,16.41
2022-09-15T14:27:27.949Z,16.48
2022-09-15T14:30:32.060Z,16.45
2022-09-15T14:33:38.294Z,16.43
2022-09-15T14:36:40.813Z,16.38
2022-09-15T14:39:49.859Z,16.38
2022-09-15T14:42:51.735Z,16.49
2022-09-15T14:45:57.188Z,16.58
2022-09-15T14:49:11.757Z,16.60
2022-09-15T14:52:27.901Z,16.62
2022-09-15T14:56:01.301Z,16.57
2022-09-15T14:59:14.909Z,16.46
2022-09-15T15:02:44.331Z,16.42
2022-09-15T15:05:58.042Z,16.41
2022-09-15T15:09:28.830Z,16.30
2022-09-15T15:12:35.162Z,16.26
2022-09-15T15:15:38.077Z,16.27
2022-09-15T15:18:41.541Z,16.20
2022-09-15T15:21:44.527Z,16.14
2022-09-15T15:24:49.586Z,16.08
2022-09-15T15:27:56.014Z,16.02
2022-09-15T15:31:16.471Z,15.99
2022-09-15T15:34:27.485Z,15.93
2022-09-15T15:37:31.803Z,15.85
2022-09-15T15:40:35.044Z,15.76
2022-09-15T15:43:36.714Z,15.69
2022-09-15T15:46:50.595Z,15.65
2022-09-15T15:50:12.892Z,15.69
2022-09-15T15:53:15.215Z,15.72
2022-09-15T15:56:25.589Z,15.73
2022-09-15T15:59:30.173Z,15.71
2022-09-15T16:02:31.814Z,15.64
2022-09-15T16:05:34.550Z,15.65
2022-09-15T16:08:39.910Z,15.63
2022-09-15T16:11:43.031Z,15.54
2022-09-15T16:14:44.838Z,15.43
2022-09-15T16:17:47.298Z,15.33
2022-09-15T16:20:51.371Z,15.22
2022-09-15T16:23:53.369Z,15.18
2022-09-15T16:26:55.093Z,15.11
2022-09-15T16:29:56.689Z,15.02
2022-09-15T16:32:59.142Z,14.94
2022-09-15T16:36:06.854Z,14.93
2022-09-15T16:39:08.566Z,14.95
2022-09-15T16:42:10.740Z,14.94
2022-09-15T16:45:39.855Z,14.89
2022-09-15T16:48:44.024Z,14.83
2022-09-15T16:51:48.186Z,14.78
2022-09-15T16:54:49.853Z,14.71
2022-09-15T16:57:51.452Z,14.67
2022-09-15T17:00:53.713Z,14.63
2022-09-15T17:03:55.885Z,14.55
2022-09-15T17:06:57.477Z,14.53
2022-09-15T17:09:59.051Z,14.49
2022-09-15T17:13:01.724Z,14.45
2022-09-15T17:16:03.392Z,14.43
2022-09-15T17:19:05.003Z,14.43
2022-09-15T17:22:08.561Z,14.44
2022-09-15T17:25:29.378Z,14.36
2022-09-15T17:28:36.476Z,14.18
2022-09-15T17:31:38.260Z,13.94
2022-09-15T17:34:39.876Z,13.74
2022-09-15T17:37:41.438Z,13.56
2022-09-15T17:40:43.082Z,13.40
2022-09-15T17:43:44.863Z,13.34
2022-09-15T17:46:46.533Z,13.21
2022-09-15T17:49:48.136Z,13.13
2022-09-15T17:52:50.930Z,13.03
2022-09-15T17:55:54.677Z,12.90
2022-09-15T17:58:56.250Z,12.82
2022-09-15T18:01:57.902Z,12.76
2022-09-15T18:05:00.113Z,12.75
2022-09-15T18:08:04.994Z,12.68
2022-09-15T18:11:07.462Z,12.65
2022-09-15T18:14:10.536Z,12.58
2022-09-15T18:17:12.134Z,12.58
2022-09-15T18:20:19.905Z,12.62
2022-09-15T18:23:23.993Z,12.62
2022-09-15T18:26:28.466Z,12.66
2022-09-15T18:29:29.975Z,12.57
2022-09-15T18:32:33.042Z,12.57
2022-09-15T18:35:34.635Z,12.55
2022-09-15T18:38:36.551Z,12.53
2022-09-15T18:41:38.990Z,12.46
2022-09-15T18:44:40.606Z,12.44
2022-09-15T18:47:42.771Z,12.35
2022-09-15T18:50:45.152Z,12.34
2022-09-15T18:53:49.757Z,12.35
2022-09-15T18:56:53.699Z,12.33
2022-09-15T18:59:55.324Z,12.34
2022-09-15T19:02:59.120Z,12.36
2022-09-15T19:06:05.309Z,12.36
2022-09-15T19:09:06.904Z,12.31
2022-09-15T19:12:08.516Z,12.32
2022-09-15T19:15:12.262Z,12.33
2022-09-15T19:18:13.819Z,12.32
2022-09-15T19:21:16.002Z,12.34
2022-09-15T19:24:17.862Z,12.33
2022-09-15T19:27:19.725Z,12.32
2022-09-15T19:30:21.290Z,12.31
2022-09-15T19:33:23.000Z,12.32
2022-09-15T19:36:28.498Z,12.32
2022-09-15T19:39:30.573Z,12.27
2022-09-15T19:42:32.234Z,12.27
2022-09-15T19:45:33.814Z,12.27
2022-09-15T19:48:38.610Z,12.27
2022-09-15T19:51:43.289Z,12.26
2022-09-15T19:54:44.939Z,12.26
2022-09-15T19:57:46.621Z,12.27
2022-09-15T20:00:53.246Z,12.28
2022-09-15T20:03:56.089Z,12.28
2022-09-15T20:06:58.183Z,12.23
2022-09-15T20:09:59.783Z,12.20
2022-09-15T20:13:01.619Z,12.20
2022-09-15T20:16:03.540Z,12.13
2022-09-15T20:19:05.389Z,12.15
2022-09-15T20:22:06.953Z,12.14
2022-09-15T20:25:08.570Z,12.08
2022-09-15T20:28:10.116Z,12.06
2022-09-15T20:31:18.231Z,12.02
2022-09-15T20:34:19.827Z,12.03
2022-09-15T20:37:23.032Z,12.01
2022-09-15T20:40:24.640Z,11.98
2022-09-15T20:43:26.908Z,11.97
2022-09-15T20:46:31.595Z,11.97
2022-09-15T20:49:33.202Z,11.95
2022-09-15T20:52:38.223Z,11.92
2022-09-15T20:55:40.162Z,11.89
2022-09-15T20:58:42.053Z,11.88
2022-09-15T21:01:43.974Z,11.88
2022-09-15T21:04:45.802Z,11.91
2022-09-15T21:07:48.453Z,11.94
2022-09-15T21:10:50.027Z,11.99
2022-09-15T21:13:51.796Z,11.98
2022-09-15T21:16:54.093Z,11.96
2022-09-15T21:19:55.693Z,12.00
2022-09-15T21:22:57.667Z,12.05
2022-09-15T21:26:02.268Z,12.05
2022-09-15T21:29:04.258Z,12.03
2022-09-15T21:32:06.053Z,12.02
2022-09-15T21:35:08.813Z,12.01
2022-09-15T21:38:11.078Z,11.95
2022-09-15T21:41:16.037Z,11.96
2022-09-15T21:44:17.660Z,11.92
2022-09-15T21:47:19.189Z,11.92
2022-09-15T21:50:20.759Z,11.94
2022-09-15T21:53:22.557Z,11.95
2022-09-15T21:56:25.578Z,11.94
2022-09-15T21:59:27.140Z,11.94
2022-09-15T22:02:28.743Z,11.88
2022-09-15T22:05:30.334Z,11.82
2022-09-15T22:08:33.056Z,11.78
2022-09-15T22:11:35.716Z,11.75
2022-09-15T22:14:37.255Z,11.72
2022-09-15T22:17:38.853Z,11.71
2022-09-15T22:20:40.559Z,11.68
2022-09-15T22:23:43.550Z,11.67
2022-09-15T22:26:45.242Z,11.60
2022-09-15T22:29:46.794Z,11.59
2022-09-15T22:32:48.334Z,11.54
2022-09-15T22:35:49.906Z,11.54
2022-09-15T22:38:52.365Z,11.55
2022-09-15T22:41:53.971Z,11.54
2022-09-15T22:44:55.566Z,11.53
2022-09-15T22:47:57.059Z,11.51
2022-09-15T22:50:59.043Z,11.53
2022-09-15T22:54:02.940Z,11.51
2022-09-15T22:57:04.703Z,11.48
2022-09-15T23:00:07.101Z,11.48
2022-09-15T23:03:10.054Z,11.41
2022-09-15T23:06:11.601Z,11.38
2022-09-15T23:09:15.298Z,11.37
2022-09-15T23:12:16.913Z,11.34
2022-09-15T23:15:19.116Z,11.34
2022-09-15T23:18:20.738Z,11.35
2022-09-15T23:21:22.534Z,11.36
2022-09-15T23:24:24.096Z,11.33
2022-09-15T23:27:25.763Z,11.32
2022-09-15T23:30:27.385Z,11.29
2022-09-15T23:33:31.486Z,11.27
2022-09-15T23:36:33.086Z,11.25
2022-09-15T23:39:34.676Z,11.20
2022-09-15T23:42:36.263Z,11.21
2022-09-15T23:45:38.356Z,11.21
2022-09-15T23:48:40.351Z,11.20
2022-09-15T23:51:41.893Z,11.16
2022-09-15T23:54:43.871Z,11.15
2022-09-15T23:57:45.415Z,11.19
